createdAt,value
2023-01-23T00:02:05.584Z,4.07
2023-01-23T00:04:34.316Z,4.17
2023-01-23T00:07:04.603Z,4.10
2023-01-23T00:09:33.700Z,4.06
2023-01-23T00:12:02.674Z,4.56
2023-01-23T00:14:31.633Z,4.43
2023-01-23T00:17:02.122Z,4.17
2023-01-23T00:19:30.435Z,4.09
2023-01-23T00:22:01.065Z,3.85
2023-01-23T00:24:30.101Z,3.93
2023-01-23T00:26:59.047Z,3.86
2023-01-23T00:29:27.996Z,3.74
2023-01-23T00:31:56.630Z,4.00
2023-01-23T00:34:27.045Z,3.94
2023-01-23T00:36:56.035Z,4.07
2023-01-23T00:39:25.666Z,3.95
2023-01-23T00:41:54.661Z,3.97
2023-01-23T00:44:23.849Z,3.85
2023-01-23T00:46:52.436Z,3.75
2023-01-23T00:49:24.457Z,4.21
2023-01-23T00:51:56.496Z,4.37
2023-01-23T00:54:26.071Z,4.57
2023-01-23T00:56:55.081Z,4.40
2023-01-23T00:59:24.727Z,3.83
2023-01-23T01:01:53.426Z,4.35
2023-01-23T01:04:22.489Z,3.66
2023-01-23T01:06:51.481Z,3.82
2023-01-23T01:09:22.887Z,4.65
2023-01-23T01:11:51.980Z,4.03
2023-01-23T01:14:20.929Z,4.09
2023-01-23T01:16:49.671Z,3.85
2023-01-23T01:19:19.274Z,4.10
2023-01-23T01:21:48.574Z,3.94
2023-01-23T01:24:17.512Z,4.03
2023-01-23T01:26:47.914Z,4.10
2023-01-23T01:29:17.076Z,4.22
2023-01-23T01:31:45.848Z,4.30
2023-01-23T01:34:15.105Z,4.51
2023-01-23T01:36:44.332Z,4.58
2023-01-23T01:39:13.300Z,4.46
2023-01-23T01:41:43.934Z,4.26
2023-01-23T01:44:17.613Z,4.40
2023-01-23T01:46:47.651Z,4.07
2023-01-23T01:49:20.081Z,4.39
2023-01-23T01:51:52.347Z,4.35
2023-01-23T01:54:25.038Z,4.54
2023-01-23T01:56:57.095Z,4.45
2023-01-23T01:59:29.868Z,4.79
2023-01-23T02:02:05.247Z,4.58
2023-01-23T02:04:36.425Z,4.52
2023-01-23T02:07:12.148Z,4.69
2023-01-23T02:09:41.524Z,4.77
2023-01-23T02:12:10.762Z,4.77
2023-01-23T02:14:43.661Z,4.80
2023-01-23T02:17:12.754Z,4.69
2023-01-23T02:19:46.784Z,4.64
2023-01-23T02:22:25.128Z,4.90
2023-01-23T02:25:03.287Z,4.93
2023-01-23T02:27:33.817Z,4.89
2023-01-23T02:30:06.221Z,4.82
2023-01-23T02:32:36.353Z,4.70
2023-01-23T02:35:07.321Z,4.85
2023-01-23T02:37:36.579Z,4.92
2023-01-23T02:40:06.775Z,4.85
2023-01-23T02:42:40.859Z,4.97
2023-01-23T02:45:11.206Z,4.69
2023-01-23T02:47:40.220Z,4.53
2023-01-23T02:50:10.209Z,4.60
2023-01-23T02:52:38.822Z,4.63
2023-01-23T02:55:08.539Z,4.59
2023-01-23T02:57:39.034Z,4.81
2023-01-23T03:00:17.026Z,4.76
2023-01-23T03:02:47.117Z,4.70
2023-01-23T03:05:16.722Z,4.59
2023-01-23T03:07:46.071Z,4.63
2023-01-23T03:10:15.115Z,4.54
2023-01-23T03:12:48.488Z,4.49
2023-01-23T03:15:17.773Z,4.42
2023-01-23T03:17:48.281Z,4.45
2023-01-23T03:20:20.151Z,4.42
2023-01-23T03:22:48.920Z,4.43
2023-01-23T03:25:18.098Z,4.75
2023-01-23T03:27:48.613Z,5.01
2023-01-23T03:30:20.471Z,4.89
2023-01-23T03:32:50.433Z,4.92
2023-01-23T03:35:21.506Z,4.85
2023-01-23T03:37:53.463Z,4.86
2023-01-23T03:40:42.143Z,5.01
2023-01-23T03:43:14.591Z,4.97
2023-01-23T03:45:49.347Z,4.83
2023-01-23T03:48:18.482Z,4.99
2023-01-23T03:50:47.557Z,4.98
2023-01-23T03:53:16.557Z,4.99
2023-01-23T03:55:48.205Z,4.89
2023-01-23T03:58:19.415Z,4.93
2023-01-23T04:00:49.880Z,4.91
2023-01-23T04:03:19.759Z,4.94
2023-01-23T04:05:49.181Z,4.73
2023-01-23T04:08:19.745Z,4.84
2023-01-23T04:10:49.329Z,5.16
2023-01-23T04:13:20.398Z,4.86
2023-01-23T04:15:49.686Z,4.88
2023-01-23T04:18:18.788Z,4.85
2023-01-23T04:20:47.838Z,4.68
2023-01-23T04:23:16.910Z,5.43
2023-01-23T04:25:45.558Z,5.74
2023-01-23T04:28:16.022Z,5.58
2023-01-23T04:30:47.772Z,5.08
2023-01-23T04:33:22.984Z,4.85
2023-01-23T04:35:54.285Z,4.92
2023-01-23T04:38:23.695Z,4.95
2023-01-23T04:40:53.407Z,4.89
2023-01-23T04:43:22.550Z,4.81
2023-01-23T04:45:56.640Z,4.97
2023-01-23T04:48:48.017Z,4.75
2023-01-23T04:51:19.132Z,4.83
2023-01-23T04:53:48.248Z,4.47
2023-01-23T04:56:17.296Z,4.72
2023-01-23T04:58:45.956Z,4.77
2023-01-23T05:01:24.750Z,5.04
2023-01-23T05:03:59.643Z,4.97
2023-01-23T05:06:29.274Z,5.39
2023-01-23T05:09:00.190Z,5.63
2023-01-23T05:11:37.577Z,5.66
2023-01-23T05:14:06.936Z,5.35
2023-01-23T05:16:37.600Z,5.40
2023-01-23T05:19:27.039Z,4.98
2023-01-23T05:21:57.037Z,4.69
2023-01-23T05:24:27.384Z,4.77
2023-01-23T05:26:58.800Z,4.52
2023-01-23T05:29:31.559Z,4.62
2023-01-23T05:32:09.963Z,4.71
2023-01-23T05:34:39.170Z,4.69
2023-01-23T05:37:26.001Z,4.36
2023-01-23T05:40:02.520Z,4.32
2023-01-23T05:42:51.975Z,4.37
2023-01-23T05:45:44.339Z,4.41
2023-01-23T05:48:24.526Z,4.22
2023-01-23T05:50:53.607Z,4.14
2023-01-23T05:53:23.627Z,4.42
2023-01-23T05:55:52.265Z,4.54
2023-01-23T05:58:22.248Z,4.70
2023-01-23T06:01:00.204Z,4.62
2023-01-23T06:03:56.372Z,4.72
2023-01-23T06:06:35.676Z,4.45
2023-01-23T06:09:04.876Z,4.45
2023-01-23T06:11:34.564Z,4.58
2023-01-23T06:14:03.782Z,4.56
2023-01-23T06:16:32.476Z,4.55
2023-01-23T06:19:03.240Z,4.42
2023-01-23T06:21:34.926Z,4.74
2023-01-23T06:24:04.653Z,4.88
2023-01-23T06:26:33.757Z,4.80
2023-01-23T06:29:02.720Z,4.74
2023-01-23T06:31:32.753Z,4.84
2023-01-23T06:34:05.434Z,4.86
2023-01-23T06:36:41.801Z,5.17
2023-01-23T06:39:15.286Z,4.76
2023-01-23T06:41:45.075Z,5.42
2023-01-23T06:44:19.646Z,5.65
2023-01-23T06:46:48.518Z,5.27
2023-01-23T06:49:19.100Z,5.33
2023-01-23T06:51:49.158Z,5.17
2023-01-23T06:54:18.414Z,4.52
2023-01-23T06:56:49.421Z,4.25
2023-01-23T06:59:18.697Z,4.30
2023-01-23T07:01:48.312Z,4.25
2023-01-23T07:04:18.830Z,4.44
2023-01-23T07:06:50.717Z,4.36
2023-01-23T07:09:21.448Z,4.66
2023-01-23T07:12:06.727Z,4.24
2023-01-23T07:14:36.372Z,4.74
2023-01-23T07:17:05.596Z,4.87
2023-01-23T07:19:35.854Z,4.90
2023-01-23T07:22:08.818Z,4.68
2023-01-23T07:24:37.856Z,4.49
2023-01-23T07:27:07.238Z,4.53
2023-01-23T07:29:36.340Z,4.71
2023-01-23T07:32:05.757Z,4.73
2023-01-23T07:34:37.094Z,4.83
2023-01-23T07:37:06.283Z,4.44
2023-01-23T07:39:35.313Z,4.56
2023-01-23T07:42:04.368Z,4.89
2023-01-23T07:44:33.638Z,5.02
2023-01-23T07:47:02.808Z,4.72
2023-01-23T07:49:31.454Z,4.81
2023-01-23T07:52:02.021Z,4.73
2023-01-23T07:54:31.417Z,4.80
2023-01-23T07:57:00.520Z,4.80
2023-01-23T07:59:29.673Z,4.67
2023-01-23T08:01:58.711Z,4.72
2023-01-23T08:04:28.113Z,4.85
2023-01-23T08:06:57.293Z,5.03
2023-01-23T08:09:27.854Z,5.08
2023-01-23T08:11:56.912Z,5.04
2023-01-23T08:14:26.137Z,5.24
2023-01-23T08:16:55.253Z,5.22
2023-01-23T08:19:25.471Z,5.12
2023-01-23T08:21:54.820Z,4.89
2023-01-23T08:24:23.886Z,4.96
2023-01-23T08:26:54.350Z,5.10
2023-01-23T08:29:23.559Z,4.80
2023-01-23T08:31:55.046Z,4.83
2023-01-23T08:34:24.418Z,5.63
2023-01-23T08:36:53.606Z,5.92
2023-01-23T08:39:22.588Z,5.93
2023-01-23T08:41:51.737Z,5.54
2023-01-23T08:44:22.327Z,5.34
2023-01-23T08:46:50.984Z,4.88
2023-01-23T08:49:20.521Z,5.43
2023-01-23T08:51:49.659Z,5.16
2023-01-23T08:54:18.736Z,5.25
2023-01-23T08:56:47.853Z,4.72
2023-01-23T08:59:16.842Z,4.96
2023-01-23T09:01:48.182Z,5.08
2023-01-23T09:04:17.674Z,5.02
2023-01-23T09:06:46.779Z,4.98
2023-01-23T09:09:15.877Z,4.82
2023-01-23T09:11:46.828Z,4.98
2023-01-23T09:14:16.492Z,4.88
2023-01-23T09:16:46.620Z,4.77
2023-01-23T09:19:16.042Z,4.96
2023-01-23T09:21:46.339Z,5.14
2023-01-23T09:24:15.051Z,5.24
2023-01-23T09:26:44.158Z,5.08
2023-01-23T09:29:13.303Z,4.92
2023-01-23T09:31:42.496Z,5.17
2023-01-23T09:34:13.326Z,5.34
2023-01-23T09:36:43.676Z,5.13
2023-01-23T09:39:13.183Z,5.00
2023-01-23T09:41:42.927Z,5.51
2023-01-23T09:44:15.681Z,5.51
2023-01-23T09:46:47.945Z,6.30
2023-01-23T09:49:24.109Z,6.21
2023-01-23T09:51:57.195Z,6.67
2023-01-23T09:54:35.150Z,6.61
2023-01-23T09:57:08.081Z,5.79
2023-01-23T09:59:53.658Z,5.53
2023-01-23T10:02:26.744Z,5.86
2023-01-23T10:04:59.373Z,5.61
2023-01-23T10:07:42.613Z,5.85
2023-01-23T10:10:44.369Z,5.92
2023-01-23T10:13:17.440Z,5.92
2023-01-23T10:16:04.208Z,6.09
2023-01-23T10:18:37.156Z,5.71
2023-01-23T10:21:14.581Z,5.85
2023-01-23T10:23:53.159Z,5.85
2023-01-23T10:26:24.089Z,6.07
2023-01-23T10:28:54.971Z,6.13
2023-01-23T10:31:35.414Z,6.31
2023-01-23T10:34:12.240Z,5.75
2023-01-23T10:36:54.761Z,5.83
2023-01-23T10:39:28.758Z,5.69
2023-01-23T10:42:02.487Z,5.49
2023-01-23T10:44:32.038Z,5.73
2023-01-23T10:47:03.875Z,5.80
2023-01-23T10:49:35.325Z,5.76
2023-01-23T10:52:06.450Z,6.05
2023-01-23T10:54:47.282Z,6.00
2023-01-23T10:57:24.164Z,5.87
2023-01-23T10:59:56.866Z,5.66
2023-01-23T11:02:29.679Z,5.85
2023-01-23T11:04:59.326Z,5.99
2023-01-23T11:07:31.482Z,5.69
2023-01-23T11:10:02.168Z,4.92
2023-01-23T11:12:32.337Z,5.08
2023-01-23T11:15:28.878Z,5.59
2023-01-23T11:18:00.059Z,5.11
2023-01-23T11:20:31.120Z,5.30
2023-01-23T11:23:07.229Z,5.15
2023-01-23T11:25:38.338Z,5.40
2023-01-23T11:28:23.826Z,5.28
2023-01-23T11:31:03.779Z,5.45
2023-01-23T11:33:44.473Z,5.39
2023-01-23T11:36:33.287Z,5.48
2023-01-23T11:39:13.428Z,5.76
2023-01-23T11:41:42.552Z,5.71
2023-01-23T11:44:18.587Z,6.03
2023-01-23T11:47:02.983Z,5.93
2023-01-23T11:49:54.715Z,6.02
2023-01-23T11:52:31.980Z,6.17
2023-01-23T11:55:29.548Z,5.86
2023-01-23T11:58:09.790Z,5.86
2023-01-23T12:00:39.531Z,5.97
2023-01-23T12:03:38.049Z,5.71
2023-01-23T12:06:24.736Z,5.61
2023-01-23T12:09:00.505Z,5.65
2023-01-23T12:11:34.985Z,5.30
2023-01-23T12:14:06.344Z,5.62
2023-01-23T12:16:48.279Z,5.78
2023-01-23T12:19:27.532Z,5.80
2023-01-23T12:22:02.233Z,5.75
2023-01-23T12:24:42.050Z,5.61
2023-01-23T12:27:19.340Z,5.49
2023-01-23T12:30:13.621Z,5.59
2023-01-23T12:32:52.740Z,5.67
2023-01-23T12:35:32.039Z,5.43
2023-01-23T12:38:14.346Z,5.58
2023-01-23T12:40:46.452Z,5.36
2023-01-23T12:43:19.658Z,5.46
2023-01-23T12:45:52.634Z,5.25
2023-01-23T12:48:28.256Z,5.37
2023-01-23T12:50:59.745Z,5.14
2023-01-23T12:53:30.600Z,5.18
2023-01-23T12:56:03.253Z,4.78
2023-01-23T12:58:36.440Z,4.91
2023-01-23T13:01:27.415Z,4.84
2023-01-23T13:04:20.159Z,4.95
2023-01-23T13:07:09.310Z,5.01
2023-01-23T13:09:49.516Z,4.72
2023-01-23T13:12:22.883Z,4.86
2023-01-23T13:15:12.982Z,4.95
2023-01-23T13:17:46.001Z,4.89
2023-01-23T13:20:46.199Z,4.76
2023-01-23T13:23:28.245Z,4.81
2023-01-23T13:26:29.071Z,5.08
2023-01-23T13:29:04.184Z,4.74
2023-01-23T13:31:45.455Z,4.92
2023-01-23T13:34:36.176Z,4.90
2023-01-23T13:37:33.639Z,4.99
2023-01-23T13:40:16.603Z,4.89
2023-01-23T13:42:48.694Z,4.93
2023-01-23T13:45:31.722Z,5.19
2023-01-23T14:20:43.733Z,5.03
2023-01-23T14:23:29.175Z,5.21
2023-01-23T14:26:00.419Z,5.07
2023-01-23T14:28:33.581Z,5.45
2023-01-23T14:31:07.901Z,5.68
2023-01-23T14:34:01.924Z,5.73
2023-01-23T14:37:04.270Z,5.97
2023-01-23T14:39:52.841Z,5.71
2023-01-23T14:43:14.840Z,4.55
2023-01-23T14:45:56.346Z,4.66
2023-01-23T14:48:35.599Z,4.73
2023-01-23T14:51:20.613Z,4.51
2023-01-23T14:54:23.229Z,4.83
2023-01-23T14:57:04.741Z,4.46
2023-01-23T15:00:27.361Z,5.47
2023-01-23T15:03:00.135Z,5.54
2023-01-23T15:05:40.050Z,5.63
2023-01-23T15:08:29.008Z,5.24
2023-01-23T15:11:14.237Z,5.61
2023-01-23T15:14:05.121Z,6.03
2023-01-23T15:16:44.615Z,5.84
2023-01-23T15:19:30.672Z,5.81
2023-01-23T15:22:30.908Z,5.87
2023-01-23T15:25:27.083Z,6.03
2023-01-23T15:27:57.679Z,5.90
2023-01-23T15:30:47.092Z,6.12
2023-01-23T15:33:26.872Z,5.88
2023-01-23T15:36:03.952Z,5.93
2023-01-23T15:38:34.200Z,5.93
2023-01-23T15:41:08.973Z,5.96
2023-01-23T15:43:39.078Z,5.86
2023-01-23T15:46:11.657Z,6.09
2023-01-23T15:48:40.922Z,6.08
2023-01-23T15:51:12.783Z,5.95
2023-01-23T15:53:42.008Z,5.98
2023-01-23T15:56:24.699Z,6.09
2023-01-23T15:58:54.890Z,6.08
2023-01-23T16:01:24.123Z,6.12
2023-01-23T16:03:53.293Z,5.72
2023-01-23T16:06:23.715Z,6.20
2023-01-23T16:09:01.050Z,6.44
2023-01-23T16:11:37.560Z,5.94
2023-01-23T16:14:10.684Z,6.11
2023-01-23T16:16:40.179Z,6.24
2023-01-23T16:19:09.394Z,6.26
2023-01-23T16:21:38.543Z,6.22
2023-01-23T16:24:08.285Z,6.28
2023-01-23T16:26:44.065Z,6.14
2023-01-23T16:29:26.497Z,6.19
2023-01-23T16:31:56.095Z,6.09
2023-01-23T16:34:25.303Z,6.08
2023-01-23T16:36:55.934Z,6.42
2023-01-23T16:39:27.138Z,5.99
2023-01-23T16:41:56.152Z,6.18
2023-01-23T16:44:28.065Z,6.24
2023-01-23T16:46:56.799Z,6.29
2023-01-23T16:49:26.839Z,6.23
2023-01-23T16:51:59.112Z,6.40
2023-01-23T16:54:28.711Z,6.49
2023-01-23T16:56:59.357Z,6.52
2023-01-23T16:59:33.001Z,6.64
2023-01-23T17:02:02.724Z,6.61
2023-01-23T17:04:32.381Z,6.76
2023-01-23T17:07:01.487Z,6.55
2023-01-23T17:09:30.574Z,6.58
2023-01-23T17:11:59.861Z,6.39
2023-01-23T17:14:32.106Z,6.40
2023-01-23T17:17:06.236Z,6.69
2023-01-23T17:19:39.939Z,6.47
2023-01-23T17:22:14.382Z,6.26
2023-01-23T17:24:43.445Z,6.24
2023-01-23T17:27:12.669Z,6.36
2023-01-23T17:29:43.293Z,6.39
2023-01-23T17:32:21.344Z,6.50
2023-01-23T17:34:50.568Z,6.03
2023-01-23T17:37:21.890Z,6.34
2023-01-23T17:39:51.254Z,5.97
2023-01-23T17:42:22.004Z,5.86
2023-01-23T17:44:52.644Z,6.15
2023-01-23T17:47:22.031Z,6.05
2023-01-23T17:49:54.819Z,6.06
2023-01-23T17:52:25.042Z,6.28
2023-01-23T17:54:54.610Z,6.36
2023-01-23T17:57:24.048Z,5.90
2023-01-23T17:59:56.452Z,6.16
2023-01-23T18:02:28.817Z,6.45
2023-01-23T18:04:59.883Z,6.33
2023-01-23T18:07:28.619Z,5.82
2023-01-23T18:09:57.788Z,5.56
2023-01-23T18:12:31.254Z,5.75
2023-01-23T18:15:08.465Z,5.74
2023-01-23T18:17:44.668Z,5.77
2023-01-23T18:20:19.255Z,5.44
2023-01-23T18:22:48.792Z,5.57
2023-01-23T18:25:20.053Z,5.68
2023-01-23T18:27:54.362Z,5.93
2023-01-23T18:30:38.867Z,6.00
2023-01-23T18:33:37.588Z,5.54
2023-01-23T18:36:31.190Z,5.67
2023-01-23T18:39:22.180Z,5.78
2023-01-23T18:42:02.224Z,5.90
2023-01-23T18:44:34.833Z,5.67
2023-01-23T18:47:09.719Z,5.80
2023-01-23T18:49:39.334Z,5.82
2023-01-23T18:52:11.267Z,5.99
2023-01-23T18:54:44.524Z,5.82
2023-01-23T18:57:24.520Z,5.86
2023-01-23T18:59:58.116Z,5.28
2023-01-23T19:02:34.259Z,5.76
2023-01-23T19:05:21.182Z,6.11
2023-01-23T19:07:50.989Z,6.09
2023-01-23T19:10:22.089Z,6.11
2023-01-23T19:13:01.076Z,6.36
2023-01-23T19:15:31.666Z,6.45
2023-01-23T19:18:11.088Z,6.52
2023-01-23T19:20:45.552Z,6.44
2023-01-23T19:23:25.603Z,6.46
2023-01-23T19:25:54.599Z,6.18
2023-01-23T19:28:24.220Z,6.27
2023-01-23T19:30:54.295Z,6.37
2023-01-23T19:33:24.810Z,6.25
2023-01-23T19:35:56.748Z,6.33
2023-01-23T19:38:25.980Z,6.39
2023-01-23T19:40:54.894Z,6.45
2023-01-23T19:43:23.928Z,6.32
2023-01-23T19:45:52.952Z,6.35
2023-01-23T19:48:22.152Z,6.24
2023-01-23T19:50:52.784Z,6.38
2023-01-23T19:53:22.354Z,6.07
2023-01-23T19:55:51.156Z,6.14
2023-01-23T19:58:21.345Z,6.38
2023-01-23T20:00:50.284Z,6.56
2023-01-23T20:03:19.459Z,5.96
2023-01-23T20:05:49.826Z,5.93
2023-01-23T20:08:20.069Z,6.32
2023-01-23T20:10:49.174Z,6.09
2023-01-23T20:13:18.380Z,5.94
2023-01-23T20:15:47.529Z,6.07
2023-01-23T20:18:16.659Z,6.16
2023-01-23T20:20:45.677Z,6.17
2023-01-23T20:23:14.783Z,6.24
2023-01-23T20:25:45.282Z,6.19
2023-01-23T20:28:14.338Z,6.23
2023-01-23T20:30:43.563Z,6.19
2023-01-23T20:33:13.194Z,6.30
2023-01-23T20:35:42.239Z,6.21
2023-01-23T20:38:11.347Z,6.25
2023-01-23T20:40:40.128Z,5.54
2023-01-23T20:43:10.753Z,6.00
2023-01-23T20:45:47.003Z,5.70
2023-01-23T20:48:16.449Z,5.57
2023-01-23T20:50:45.779Z,5.62
2023-01-23T20:53:34.943Z,5.50
2023-01-23T20:56:06.197Z,5.52
2023-01-23T20:58:55.713Z,5.52
2023-01-23T21:01:28.311Z,5.55
2023-01-23T21:03:57.860Z,5.32
2023-01-23T21:06:27.030Z,5.51
2023-01-23T21:08:58.266Z,5.58
2023-01-23T21:11:27.605Z,5.19
2023-01-23T21:13:58.242Z,5.43
2023-01-23T21:16:27.266Z,5.19
2023-01-23T21:18:56.505Z,4.18
2023-01-23T21:21:25.765Z,3.89
2023-01-23T21:23:55.186Z,3.83
2023-01-23T21:26:26.174Z,3.80
2023-01-23T21:28:55.851Z,4.72
2023-01-23T21:31:28.498Z,5.01
2023-01-23T21:34:00.254Z,5.01
2023-01-23T21:36:30.162Z,5.14
2023-01-23T21:38:59.466Z,5.24
2023-01-23T21:41:28.638Z,5.28
2023-01-23T21:43:57.534Z,5.13
2023-01-23T21:46:28.013Z,4.57
2023-01-23T21:48:57.362Z,5.12
2023-01-23T21:51:27.860Z,5.17
2023-01-23T21:53:57.234Z,5.34
2023-01-23T21:56:26.759Z,5.35
2023-01-23T21:58:55.545Z,5.07
2023-01-23T22:01:35.855Z,5.22
2023-01-23T22:04:09.237Z,5.34
2023-01-23T22:06:39.368Z,5.33
2023-01-23T22:09:08.418Z,5.45
2023-01-23T22:11:37.859Z,5.11
2023-01-23T22:14:07.185Z,5.22
2023-01-23T22:16:47.980Z,5.23
2023-01-23T22:19:24.262Z,5.28
2023-01-23T22:21:54.746Z,5.59
2023-01-23T22:24:23.970Z,5.56
2023-01-23T22:26:53.145Z,5.59
2023-01-23T22:29:23.017Z,5.55
2023-01-23T22:31:52.553Z,5.69
2023-01-23T22:34:23.164Z,5.97
2023-01-23T22:36:52.260Z,5.81
2023-01-23T22:39:21.302Z,5.58
2023-01-23T22:41:51.357Z,5.68
2023-01-23T22:44:20.454Z,5.81
2023-01-23T22:46:51.602Z,6.03
2023-01-23T22:49:22.453Z,5.76
2023-01-23T22:51:52.151Z,5.73
2023-01-23T22:54:21.251Z,5.65
2023-01-23T22:56:50.363Z,5.80
2023-01-23T22:59:19.372Z,5.87
2023-01-23T23:01:47.966Z,4.81
2023-01-23T23:04:16.968Z,4.67
2023-01-23T23:06:48.361Z,4.67
2023-01-23T23:09:17.416Z,4.75
2023-01-23T23:11:49.085Z,4.68
2023-01-23T23:14:18.133Z,4.72
2023-01-23T23:16:46.859Z,4.62
2023-01-23T23:19:15.982Z,4.63
2023-01-23T23:21:44.985Z,4.30
2023-01-23T23:24:15.548Z,4.35
2023-01-23T23:26:44.707Z,4.41
2023-01-23T23:29:13.733Z,4.48
2023-01-23T23:31:42.967Z,4.45
2023-01-23T23:34:12.256Z,4.55
2023-01-23T23:36:41.393Z,4.59
2023-01-23T23:39:10.757Z,4.57
2023-01-23T23:41:41.372Z,4.72
2023-01-23T23:44:10.610Z,4.42
2023-01-23T23:46:39.716Z,4.25
2023-01-23T23:49:10.196Z,4.43
2023-01-23T23:51:39.439Z,4.43
2023-01-23T23:54:08.728Z,4.59
2023-01-23T23:56:37.976Z,4.66
2023-01-23T23:59:08.681Z,4.61
